Time;durP1;ratioP1;P1;durP2;ratioP2;P2;SDS_P1;SDS_P2;PMS_P1;PMS_P2;Temp;Humidity;BMP_temperature;BMP_pressure;BME280_temperature;BME280_humidity;BME280_pressure;Samples;Min_cycle;Max_cycle;Signal;HPM_P1;HPM_P2
2022/10/21 00:01:14;;;;;;;12.18;4.60;;;15.90;99.90;;;;;;5078014;28;20020;-81
2022/10/21 00:03:40;;;;;;;11.38;5.20;;;16.00;99.90;;;;;;5082506;28;20027;-81
2022/10/21 00:06:07;;;;;;;14.45;5.28;;;16.00;99.90;;;;;;5083966;28;20028;-82
2022/10/21 00:08:33;;;;;;;15.57;7.50;;;16.00;99.90;;;;;;5080980;28;20046;-81
2022/10/21 00:11:01;;;;;;;16.02;8.77;;;16.00;99.90;;;;;;5080700;28;20024;-82
2022/10/21 00:13:29;;;;;;;19.73;9.88;;;15.90;99.90;;;;;;5083569;28;20408;-81
2022/10/21 00:16:10;;;;;;;19.00;10.13;;;15.80;99.90;;;;;;5084210;28;20093;-81
2022/10/21 00:18:37;;;;;;;18.23;9.75;;;15.70;99.90;;;;;;5083087;28;20116;-81
2022/10/21 00:21:08;;;;;;;17.95;10.55;;;15.60;99.90;;;;;;5080296;28;20020;-81
2022/10/21 00:23:34;;;;;;;17.92;10.02;;;15.60;99.90;;;;;;5080808;28;20020;-80
2022/10/21 00:26:00;;;;;;;20.48;10.35;;;15.50;99.90;;;;;;5081614;28;20032;-80
2022/10/21 00:28:26;;;;;;;18.25;11.25;;;15.40;99.90;;;;;;5078646;28;20051;-80
2022/10/21 00:30:52;;;;;;;17.50;12.02;;;15.40;99.90;;;;;;5083705;28;20500;-80
2022/10/21 00:33:18;;;;;;;18.02;10.50;;;15.30;99.90;;;;;;5084568;28;20063;-81
2022/10/21 00:35:52;;;;;;;21.88;9.98;;;15.30;99.90;;;;;;5084770;28;20472;-81
2022/10/21 00:38:18;;;;;;;15.73;10.43;;;15.30;99.90;;;;;;5119504;27;20020;-80
2022/10/21 00:40:43;;;;;;;20.30;11.30;;;15.20;99.90;;;;;;5104220;28;20024;-80
2022/10/21 00:43:10;;;;;;;18.33;10.25;;;15.20;99.90;;;;;;5099115;28;20153;-81
2022/10/21 00:45:36;;;;;;;23.10;11.32;;;15.10;99.90;;;;;;5098620;28;20031;-80
2022/10/21 00:48:05;;;;;;;18.80;11.00;;;15.20;99.90;;;;;;5087231;28;20016;-81
2022/10/21 00:50:42;;;;;;;16.42;10.63;;;15.10;99.90;;;;;;5085768;28;20549;-81
2022/10/21 00:53:12;;;;;;;17.98;10.45;;;15.00;99.90;;;;;;5085603;28;20028;-81
2022/10/21 00:55:45;;;;;;;15.05;9.93;;;15.00;99.90;;;;;;5089494;28;20036;-81
2022/10/21 00:58:11;;;;;;;17.25;10.40;;;15.00;99.90;;;;;;5084858;28;20039;-81
2022/10/21 01:00:37;;;;;;;16.30;10.27;;;15.00;99.90;;;;;;5086293;28;20032;-81
2022/10/21 01:03:03;;;;;;;20.35;10.00;;;15.00;99.90;;;;;;5089341;28;20055;-81
2022/10/21 01:05:28;;;;;;;16.70;10.02;;;15.00;99.90;;;;;;5082837;28;20405;-81
2022/10/21 01:07:55;;;;;;;17.67;10.23;;;14.90;99.90;;;;;;5087218;28;20059;-81
2022/10/21 01:10:20;;;;;;;16.40;10.45;;;15.00;99.90;;;;;;5081662;28;20028;-80
2022/10/21 01:12:52;;;;;;;15.45;11.02;;;15.00;99.90;;;;;;5085940;28;20024;-80
2022/10/21 01:15:49;;;;;;;17.92;10.52;;;15.00;99.90;;;;;;5081478;28;20043;-81
2022/10/21 01:18:32;;;;;;;16.50;10.32;;;15.00;99.90;;;;;;5085313;28;20286;-81
2022/10/21 01:21:09;;;;;;;14.73;6.35;;;15.00;99.90;;;;;;5084131;28;20027;-80
2022/10/21 01:24:03;;;;;;;12.98;6.63;;;15.10;99.90;;;;;;5084876;28;20036;-80
2022/10/21 01:26:54;;;;;;;10.27;5.60;;;15.10;99.90;;;;;;5086070;28;20064;-79
2022/10/21 01:29:53;;;;;;;18.75;5.93;;;15.20;99.90;;;;;;5085908;28;20052;-79
2022/10/21 01:32:22;;;;;;;9.75;3.38;;;15.20;99.90;;;;;;5084751;28;20532;-81
2022/10/21 01:35:20;;;;;;;12.60;5.78;;;15.30;99.90;;;;;;5085546;28;20075;-81
2022/10/21 01:37:52;;;;;;;14.88;8.15;;;15.30;99.90;;;;;;5081050;28;20635;-80
2022/10/21 01:40:44;;;;;;;14.45;9.73;;;15.30;99.90;;;;;;5086363;28;20430;-81
2022/10/21 01:43:56;;;;;;;22.17;12.52;;;15.30;99.90;;;;;;5085971;28;20503;-81
2022/10/21 01:46:26;;;;;;;20.92;12.82;;;15.30;99.90;;;;;;5044564;28;20095;-81
2022/10/21 01:49:00;;;;;;;17.38;12.80;;;15.30;99.90;;;;;;5045622;28;20056;-81
2022/10/21 01:51:27;;;;;;;17.48;11.45;;;15.30;99.90;;;;;;5056598;28;20082;-80
2022/10/21 01:54:00;;;;;;;19.58;10.45;;;15.20;99.90;;;;;;5087221;28;20036;-80
2022/10/21 01:56:27;;;;;;;16.13;11.45;;;15.20;99.90;;;;;;5086617;28;20480;-80
2022/10/21 01:58:54;;;;;;;18.27;10.93;;;15.20;99.90;;;;;;5090236;28;20125;-80
2022/10/21 02:01:21;;;;;;;16.58;10.57;;;15.20;99.90;;;;;;5081628;28;20031;-81
2022/10/21 02:03:51;;;;;;;16.83;11.65;;;15.20;99.90;;;;;;5084004;28;20059;-80
2022/10/21 02:06:17;;;;;;;21.55;12.02;;;15.20;99.90;;;;;;5088828;28;20028;-80
2022/10/21 02:08:43;;;;;;;17.92;12.30;;;15.20;99.90;;;;;;5087134;28;20838;-81
2022/10/21 02:11:11;;;;;;;17.05;12.50;;;15.10;99.90;;;;;;5079950;28;20066;-80
2022/10/21 02:14:02;;;;;;;17.63;10.80;;;15.10;99.90;;;;;;5083013;28;20028;-80
2022/10/21 02:16:31;;;;;;;15.35;10.98;;;15.00;99.90;;;;;;5083704;28;20495;-81
2022/10/21 02:18:59;;;;;;;20.88;10.80;;;15.00;99.90;;;;;;5084390;28;20414;-80
2022/10/21 02:21:29;;;;;;;18.42;9.80;;;15.00;99.90;;;;;;5084744;28;20472;-80
2022/10/21 02:24:19;;;;;;;16.95;10.43;;;14.90;99.90;;;;;;5085503;28;20032;-80
2022/10/21 02:26:45;;;;;;;15.00;8.95;;;14.90;99.90;;;;;;5076508;28;20460;-81
2022/10/21 02:29:12;;;;;;;14.70;9.43;;;14.90;99.90;;;;;;5084584;28;20088;-80
2022/10/21 02:31:44;;;;;;;15.63;8.88;;;14.90;99.90;;;;;;5083672;28;20405;-80
2022/10/21 02:34:28;;;;;;;14.43;8.20;;;14.90;99.90;;;;;;5087173;28;20068;-81
2022/10/21 02:37:05;;;;;;;;;;;14.80;99.90;;;;;;5086916;28;21210;-81
2022/10/21 02:39:51;;;;;;;16.83;8.80;;;14.80;99.90;;;;;;5079934;28;20441;-80
2022/10/21 02:42:24;;;;;;;16.65;8.93;;;14.80;99.90;;;;;;5083866;28;20412;-81
2022/10/21 02:44:51;;;;;;;11.88;8.48;;;14.80;99.90;;;;;;5083626;28;20608;-81
2022/10/21 02:47:17;;;;;;;14.15;10.45;;;14.80;99.90;;;;;;5084305;28;20028;-80
2022/10/21 02:49:43;;;;;;;13.60;8.93;;;14.80;99.90;;;;;;5083114;28;20039;-80
2022/10/21 02:52:09;;;;;;;20.65;10.15;;;14.80;99.90;;;;;;5080711;28;20034;-80
2022/10/21 02:54:35;;;;;;;15.48;9.13;;;14.80;99.90;;;;;;5083148;28;20028;-80
2022/10/21 02:57:00;;;;;;;14.00;9.68;;;14.80;99.90;;;;;;5085478;28;20733;-80
2022/10/21 02:59:26;;;;;;;19.83;10.48;;;14.80;99.90;;;;;;5086944;28;20089;-80
2022/10/21 03:01:52;;;;;;;18.75;10.57;;;14.80;99.90;;;;;;5086994;28;20028;-80
2022/10/21 03:04:17;;;;;;;12.55;9.23;;;14.80;99.90;;;;;;5080794;28;20024;-80
2022/10/21 03:06:43;;;;;;;12.10;8.85;;;14.80;99.90;;;;;;5087165;28;20167;-80
2022/10/21 03:09:09;;;;;;;18.48;9.48;;;14.80;99.90;;;;;;5084773;28;20032;-80
2022/10/21 03:11:34;;;;;;;15.75;10.30;;;14.80;99.90;;;;;;5082871;28;20468;-80
2022/10/21 03:14:00;;;;;;;15.07;9.55;;;14.80;99.90;;;;;;5084364;28;20085;-80
2022/10/21 03:16:25;;;;;;;13.98;9.48;;;14.80;99.90;;;;;;5086458;28;20440;-80
2022/10/21 03:18:51;;;;;;;19.55;10.00;;;14.90;99.90;;;;;;5081270;28;20088;-80
2022/10/21 03:21:16;;;;;;;12.13;8.85;;;14.80;99.90;;;;;;5085946;28;20052;-80
2022/10/21 03:23:42;;;;;;;15.15;8.73;;;14.90;99.90;;;;;;5086176;28;20024;-80
2022/10/21 03:26:08;;;;;;;14.70;9.57;;;14.90;99.90;;;;;;5084241;28;20054;-80
2022/10/21 03:28:33;;;;;;;15.52;9.50;;;14.90;99.90;;;;;;5082985;28;20036;-80
2022/10/21 03:30:59;;;;;;;16.27;9.63;;;14.90;99.90;;;;;;5082751;28;20055;-80
2022/10/21 03:33:25;;;;;;;20.25;10.82;;;14.90;99.90;;;;;;5083610;28;20036;-80
2022/10/21 03:35:50;;;;;;;13.35;8.77;;;14.90;99.90;;;;;;5087967;28;20069;-80
2022/10/21 03:38:16;;;;;;;18.08;10.25;;;14.90;99.90;;;;;;5086225;28;20615;-81
2022/10/21 03:40:41;;;;;;;18.38;9.75;;;15.00;99.90;;;;;;5083334;28;20027;-80
2022/10/21 03:43:07;;;;;;;18.60;10.00;;;15.00;99.90;;;;;;5082412;28;20032;-80
2022/10/21 03:45:33;;;;;;;14.52;9.13;;;15.00;99.90;;;;;;5082553;28;20952;-81
2022/10/21 03:47:58;;;;;;;20.02;9.80;;;15.00;99.90;;;;;;5076435;28;20124;-81
2022/10/21 03:50:24;;;;;;;16.05;9.20;;;15.00;99.90;;;;;;5082492;28;20050;-81
2022/10/21 03:52:49;;;;;;;15.55;9.30;;;15.00;99.90;;;;;;5077827;28;20074;-80
2022/10/21 03:55:19;;;;;;;15.70;9.65;;;15.00;99.90;;;;;;5085183;28;20032;-81
2022/10/21 03:57:45;;;;;;;17.45;10.13;;;15.00;99.90;;;;;;5083994;28;20032;-81
2022/10/21 04:00:12;;;;;;;13.52;9.00;;;15.00;99.90;;;;;;5080410;28;20495;-81
2022/10/21 04:02:38;;;;;;;15.23;9.20;;;15.00;99.90;;;;;;5080437;28;20028;-80
2022/10/21 04:05:04;;;;;;;15.23;9.27;;;15.00;99.90;;;;;;5084219;28;20103;-81
2022/10/21 04:07:29;;;;;;;20.30;9.57;;;15.00;99.90;;;;;;5079134;28;20450;-81
2022/10/21 04:09:55;;;;;;;13.73;9.48;;;15.00;99.90;;;;;;5080203;28;20029;-80
2022/10/21 04:12:20;;;;;;;11.88;8.93;;;15.00;99.90;;;;;;5083571;28;20024;-81
2022/10/21 04:14:46;;;;;;;15.23;9.68;;;15.00;99.90;;;;;;5087372;28;20449;-81
2022/10/21 04:17:11;;;;;;;14.45;9.45;;;15.00;99.90;;;;;;5077297;28;20059;-81
2022/10/21 04:19:37;;;;;;;13.73;8.95;;;15.00;99.90;;;;;;5081560;28;20404;-81
2022/10/21 04:22:03;;;;;;;13.45;9.18;;;15.00;99.90;;;;;;5081098;28;20020;-81
2022/10/21 04:24:28;;;;;;;15.93;9.45;;;15.00;99.90;;;;;;5076835;28;20472;-80
2022/10/21 04:26:54;;;;;;;13.77;8.70;;;15.00;99.90;;;;;;5094269;22;20433;-76
2022/10/21 04:29:19;;;;;;;12.95;9.20;;;15.00;99.90;;;;;;5047655;28;20036;-76
2022/10/21 04:31:45;;;;;;;13.07;8.27;;;15.00;99.90;;;;;;5047544;28;20025;-76
2022/10/21 04:34:17;;;;;;;14.80;9.35;;;15.00;99.90;;;;;;5045259;28;20021;-76
2022/10/21 04:36:42;;;;;;;13.70;8.40;;;15.00;99.90;;;;;;5039940;28;20041;-76
2022/10/21 04:39:11;;;;;;;14.70;8.57;;;15.00;99.90;;;;;;5048011;28;20075;-76
2022/10/21 04:41:40;;;;;;;14.00;9.27;;;15.00;99.90;;;;;;5047568;28;20040;-76
2022/10/21 04:44:06;;;;;;;13.80;8.85;;;15.00;99.90;;;;;;5045237;28;20040;-77
2022/10/21 04:46:37;;;;;;;14.52;10.27;;;15.00;99.90;;;;;;5046835;28;20037;-75
2022/10/21 04:49:12;;;;;;;17.00;10.30;;;14.90;99.90;;;;;;5041307;28;20095;-76
2022/10/21 04:51:38;;;;;;;16.42;10.43;;;14.90;99.90;;;;;;5040980;28;20571;-76
2022/10/21 04:54:03;;;;;;;13.05;9.15;;;14.90;99.90;;;;;;5041806;28;20037;-75
2022/10/21 04:56:29;;;;;;;16.27;10.32;;;14.90;99.90;;;;;;5042644;28;20036;-75
2022/10/21 04:58:55;;;;;;;15.52;10.88;;;14.90;99.90;;;;;;5044570;28;20013;-76
2022/10/21 05:01:20;;;;;;;14.50;10.18;;;14.90;99.90;;;;;;5042779;28;20040;-78
2022/10/21 05:03:46;;;;;;;17.38;10.20;;;14.80;99.90;;;;;;5049365;28;20067;-78
2022/10/21 05:06:11;;;;;;;15.35;9.90;;;14.90;99.90;;;;;;5049958;28;20049;-78
2022/10/21 05:08:37;;;;;;;14.90;10.90;;;14.90;99.90;;;;;;5048857;28;20041;-78
2022/10/21 05:11:03;;;;;;;17.40;10.82;;;14.90;99.90;;;;;;5050689;28;20025;-77
2022/10/21 05:13:29;;;;;;;19.52;11.05;;;14.90;99.90;;;;;;5045793;28;20553;-77
2022/10/21 05:16:01;;;;;;;18.10;11.63;;;14.90;99.90;;;;;;5050490;28;20489;-77
2022/10/21 05:18:27;;;;;;;18.02;10.77;;;14.90;99.90;;;;;;5047539;28;20025;-78
2022/10/21 05:20:54;;;;;;;20.13;11.32;;;14.90;99.90;;;;;;5048144;28;20500;-77
2022/10/21 05:23:20;;;;;;;16.63;10.63;;;14.90;99.90;;;;;;5047327;28;20036;-77
2022/10/21 05:25:46;;;;;;;17.65;11.25;;;14.90;99.90;;;;;;5050822;28;20025;-77
2022/10/21 05:28:13;;;;;;;19.45;11.40;;;14.90;99.90;;;;;;5049448;28;20039;-77
2022/10/21 05:30:39;;;;;;;15.93;11.27;;;14.90;99.90;;;;;;5050146;28;20040;-71
2022/10/21 05:33:05;;;;;;;18.40;11.23;;;14.90;99.90;;;;;;5045390;28;20389;-72
2022/10/21 05:35:30;;;;;;;16.45;10.55;;;14.90;99.90;;;;;;5043391;28;20032;-72
2022/10/21 05:37:56;;;;;;;19.10;11.40;;;14.90;99.90;;;;;;5043178;28;20029;-72
2022/10/21 05:40:22;;;;;;;18.90;11.05;;;14.90;99.90;;;;;;5037963;28;20025;-71
2022/10/21 05:42:47;;;;;;;20.80;10.18;;;15.00;99.90;;;;;;5037335;28;20432;-72
2022/10/21 05:45:13;;;;;;;19.95;10.05;;;15.00;99.90;;;;;;5042182;28;20025;-72
2022/10/21 05:47:42;;;;;;;16.80;10.23;;;15.00;99.90;;;;;;5042216;28;20370;-71
2022/10/21 05:50:09;;;;;;;20.42;9.18;;;15.00;99.90;;;;;;5043484;28;20029;-72
2022/10/21 05:52:39;;;;;;;13.85;7.22;;;15.00;99.90;;;;;;5050366;28;20433;-77
2022/10/21 05:55:08;;;;;;;17.98;6.68;;;15.00;99.90;;;;;;5050093;28;20033;-77
2022/10/21 05:57:39;;;;;;;15.02;6.43;;;15.10;99.90;;;;;;5062202;28;20021;-76
2022/10/21 06:00:05;;;;;;;16.67;5.43;;;15.10;99.90;;;;;;5044735;28;20029;-76
2022/10/21 06:02:31;;;;;;;13.38;5.47;;;15.10;99.90;;;;;;5050483;28;20033;-75
2022/10/21 06:04:57;;;;;;;13.32;5.30;;;15.10;99.90;;;;;;5049807;28;20040;-76
2022/10/21 06:07:23;;;;;;;14.93;4.90;;;15.10;99.90;;;;;;5042935;28;20033;-77
2022/10/21 06:09:48;;;;;;;14.63;5.55;;;15.10;99.90;;;;;;5043268;28;20036;-77
2022/10/21 06:12:14;;;;;;;13.57;5.50;;;15.20;99.90;;;;;;5046356;28;20037;-77
2022/10/21 06:14:39;;;;;;;14.13;5.07;;;15.20;99.90;;;;;;5039188;28;20044;-77
2022/10/21 06:17:05;;;;;;;12.50;4.80;;;15.20;99.90;;;;;;5043555;28;20485;-77
2022/10/21 06:19:31;;;;;;;15.50;5.15;;;15.20;99.90;;;;;;5042909;28;20029;-77
2022/10/21 06:21:57;;;;;;;17.20;5.30;;;15.20;99.90;;;;;;5046918;28;20507;-77
2022/10/21 06:24:24;;;;;;;12.13;5.25;;;15.20;99.90;;;;;;5044829;28;20037;-76
2022/10/21 06:26:50;;;;;;;18.52;5.20;;;15.20;99.90;;;;;;5046560;28;20028;-77
2022/10/21 06:29:18;;;;;;;11.88;4.07;;;15.20;99.90;;;;;;5046562;28;20457;-77
2022/10/21 06:31:44;;;;;;;12.45;5.20;;;15.20;99.90;;;;;;5041273;28;20045;-78
2022/10/21 06:34:12;;;;;;;16.42;5.40;;;15.20;99.90;;;;;;5049116;28;20036;-77
2022/10/21 06:36:38;;;;;;;17.40;6.05;;;15.20;99.90;;;;;;5049347;28;20033;-76
2022/10/21 06:39:07;;;;;;;14.57;4.85;;;15.30;99.90;;;;;;5047586;28;20076;-77
2022/10/21 06:41:36;;;;;;;15.30;5.13;;;15.20;99.90;;;;;;5046717;28;20021;-77
2022/10/21 06:44:01;;;;;;;11.80;5.25;;;15.20;99.90;;;;;;5048179;28;20052;-77
2022/10/21 06:46:27;;;;;;;10.50;5.22;;;15.20;99.90;;;;;;5046998;28;20067;-77
2022/10/21 06:48:52;;;;;;;16.02;5.00;;;15.20;99.90;;;;;;5048430;28;20037;-77
2022/10/21 06:51:23;;;;;;;13.45;4.47;;;15.20;99.90;;;;;;5042395;28;20343;-78
2022/10/21 06:53:54;;;;;;;12.32;4.53;;;15.20;99.90;;;;;;5052948;28;20063;-78
2022/10/21 06:56:21;;;;;;;12.15;5.22;;;15.20;99.90;;;;;;5054214;28;20067;-78
2022/10/21 06:58:48;;;;;;;17.95;5.38;;;15.20;99.90;;;;;;5044660;28;20367;-77
2022/10/21 07:01:25;;;;;;;18.48;5.18;;;15.20;99.90;;;;;;5042338;28;20064;-77
2022/10/21 07:03:54;;;;;;;9.60;4.40;;;15.20;99.90;;;;;;5049977;28;20028;-77
2022/10/21 07:06:23;;;;;;;16.70;4.40;;;15.20;99.90;;;;;;5040811;28;20033;-77
2022/10/21 07:08:49;;;;;;;17.10;5.05;;;15.20;99.90;;;;;;5047831;28;20029;-77
2022/10/21 07:11:15;;;;;;;13.32;4.50;;;15.20;99.90;;;;;;5048190;28;20090;-78
2022/10/21 07:13:43;;;;;;;14.32;4.78;;;15.20;99.90;;;;;;5047249;28;20036;-77
2022/10/21 07:16:25;;;;;;;12.93;5.15;;;15.20;99.90;;;;;;5044880;28;20066;-77
2022/10/21 07:18:51;;;;;;;13.38;4.63;;;15.20;99.90;;;;;;5042763;28;20021;-77
2022/10/21 07:21:19;;;;;;;12.77;4.80;;;15.20;99.90;;;;;;5049323;28;20126;-77
2022/10/21 07:23:46;;;;;;;13.82;4.85;;;15.20;99.90;;;;;;5044156;28;20018;-77
2022/10/21 07:26:14;;;;;;;13.73;4.90;;;15.20;99.90;;;;;;5047710;28;20047;-77
2022/10/21 07:28:42;;;;;;;12.60;4.40;;;15.20;99.90;;;;;;5040462;28;20128;-77
2022/10/21 07:31:07;;;;;;;8.88;4.43;;;15.30;99.90;;;;;;5042640;28;20037;-77
2022/10/21 07:33:36;;;;;;;15.00;5.10;;;15.20;99.90;;;;;;5038388;28;20033;-76
2022/10/21 07:36:10;;;;;;;14.40;5.18;;;15.30;99.90;;;;;;5039012;28;20086;-77
2022/10/21 07:38:36;;;;;;;13.80;5.50;;;15.30;99.90;;;;;;5040531;28;21296;-77
2022/10/21 07:41:02;;;;;;;11.82;4.55;;;15.30;99.90;;;;;;5036798;28;20036;-76
2022/10/21 07:43:28;;;;;;;13.85;4.72;;;15.30;99.90;;;;;;5041245;28;20397;-77
2022/10/21 07:45:57;;;;;;;13.40;4.60;;;15.30;99.90;;;;;;5043660;28;20032;-77
2022/10/21 07:48:23;;;;;;;10.02;4.60;;;15.30;99.90;;;;;;5049743;28;20178;-77
2022/10/21 07:50:49;;;;;;;10.65;4.75;;;15.30;99.90;;;;;;5046535;28;20108;-77
2022/10/21 07:53:15;;;;;;;10.57;4.15;;;15.30;99.90;;;;;;5047287;28;20110;-78
2022/10/21 07:55:41;;;;;;;12.30;4.40;;;15.30;99.90;;;;;;5045947;28;20493;-77
2022/10/21 07:58:06;;;;;;;9.02;3.85;;;15.30;99.90;;;;;;5043129;28;20027;-77
2022/10/21 08:00:32;;;;;;;12.38;4.20;;;15.30;99.90;;;;;;5043529;28;20052;-78
2022/10/21 08:02:58;;;;;;;12.05;4.47;;;15.30;99.90;;;;;;5043032;28;20029;-77
2022/10/21 08:05:24;;;;;;;14.00;4.63;;;15.30;99.90;;;;;;5045375;28;20030;-77
2022/10/21 08:07:50;;;;;;;11.30;3.55;;;15.30;99.90;;;;;;5047075;28;20025;-77
2022/10/21 08:10:16;;;;;;;6.70;3.10;;;15.30;99.90;;;;;;5046722;28;20037;-77
2022/10/21 08:12:41;;;;;;;8.77;2.70;;;15.40;99.90;;;;;;5051235;28;20033;-78
2022/10/21 08:15:07;;;;;;;10.35;3.22;;;15.40;99.90;;;;;;5046935;28;20390;-78
2022/10/21 08:17:36;;;;;;;7.68;2.25;;;15.40;99.90;;;;;;5049952;28;20652;-77
2022/10/21 08:20:05;;;;;;;5.57;2.60;;;15.40;99.90;;;;;;5047668;28;20242;-77
2022/10/21 08:22:40;;;;;;;9.57;2.75;;;15.40;99.90;;;;;;5046002;28;20154;-78
2022/10/21 08:25:07;;;;;;;9.80;2.90;;;15.50;99.90;;;;;;5046735;28;20021;-78
2022/10/21 08:27:39;;;;;;;9.68;3.63;;;15.50;99.90;;;;;;5053161;28;20087;-78
2022/10/21 08:30:05;;;;;;;8.00;3.10;;;15.50;99.90;;;;;;5048910;28;20038;-78
2022/10/21 08:32:30;;;;;;;11.77;2.90;;;15.60;99.90;;;;;;5063899;28;20065;-78
2022/10/21 08:34:59;;;;;;;6.88;2.88;;;15.60;99.90;;;;;;5047653;28;20092;-76
2022/10/21 08:37:25;;;;;;;7.47;2.85;;;15.60;99.90;;;;;;5043849;28;21990;-77
2022/10/21 08:39:53;;;;;;;8.10;2.38;;;15.70;99.90;;;;;;5048723;28;20017;-77
2022/10/21 08:42:28;;;;;;;8.27;2.85;;;15.70;99.90;;;;;;5044380;28;20390;-77
2022/10/21 08:45:00;;;;;;;11.07;2.75;;;15.70;99.90;;;;;;5047307;28;20063;-77
2022/10/21 08:47:51;;;;;;;7.32;2.55;;;15.70;99.90;;;;;;5049989;28;20481;-77
2022/10/21 08:50:38;;;;;;;8.40;2.83;;;15.70;99.90;;;;;;5050311;28;20021;-76
2022/10/21 08:53:22;;;;;;;4.72;2.22;;;15.80;99.90;;;;;;5064766;28;20101;-77
2022/10/21 08:55:51;;;;;;;9.30;3.28;;;15.80;99.90;;;;;;5043017;28;20033;-78
2022/10/21 08:58:22;;;;;;;18.20;4.95;;;15.80;99.90;;;;;;5053872;28;20056;-78
2022/10/21 09:01:22;;;;;;;20.92;4.32;;;15.90;99.90;;;;;;5052749;28;20028;-78
2022/10/21 09:03:56;;;;;;;12.57;3.92;;;15.90;99.90;;;;;;5048502;28;20025;-78
2022/10/21 09:06:33;;;;;;;10.63;2.45;;;15.90;99.90;;;;;;5047877;28;20067;-81
2022/10/21 09:09:27;;;;;;;7.93;3.00;;;15.90;99.90;;;;;;5041303;28;20047;-80
2022/10/21 09:12:28;;;;;;;9.30;2.55;;;15.90;99.90;;;;;;5039867;28;20048;-77
2022/10/21 09:14:59;;;;;;;10.13;3.22;;;15.90;99.90;;;;;;4988518;28;20633;-77
2022/10/21 09:17:33;;;;;;;7.30;2.22;;;15.80;99.90;;;;;;5030554;28;20063;-77
2022/10/21 09:20:31;;;;;;;10.63;2.88;;;15.80;99.90;;;;;;5041760;28;20033;-77
2022/10/21 09:23:18;;;;;;;11.05;2.88;;;15.80;99.90;;;;;;5047760;28;20032;-76
2022/10/21 09:25:55;;;;;;;12.60;2.53;;;15.80;99.90;;;;;;5055617;28;20504;-78
2022/10/21 09:28:23;;;;;;;9.48;2.85;;;15.90;99.90;;;;;;5056701;28;20112;-79
2022/10/21 09:30:50;;;;;;;9.98;2.90;;;15.90;99.90;;;;;;5056469;28;20022;-80
2022/10/21 09:33:21;;;;;;;10.07;3.38;;;15.90;99.90;;;;;;5051858;28;20035;-77
2022/10/21 09:35:53;;;;;;;6.43;3.38;;;16.00;99.90;;;;;;5047893;28;20037;-78
2022/10/21 09:38:40;;;;;;;9.55;3.33;;;16.00;99.90;;;;;;5051018;28;20033;-78
2022/10/21 09:41:50;;;;;;;11.75;3.38;;;16.10;99.90;;;;;;5053334;28;20025;-78
2022/10/21 09:44:22;;;;;;;10.15;3.47;;;16.10;99.90;;;;;;5039736;28;20043;-78
2022/10/21 09:46:50;;;;;;;10.02;3.05;;;16.20;99.90;;;;;;5058722;28;20029;-79
2022/10/21 09:49:36;;;;;;;8.13;3.30;;;16.20;99.90;;;;;;5056880;28;20501;-79
2022/10/21 09:52:04;;;;;;;6.72;3.15;;;16.30;99.90;;;;;;5061680;28;20037;-79
2022/10/21 09:54:36;;;;;;;12.30;2.95;;;16.40;99.90;;;;;;5059221;28;20089;-79
2022/10/21 09:57:14;;;;;;;5.55;2.75;;;16.40;99.90;;;;;;5053194;28;20025;-79
2022/10/21 10:00:06;;;;;;;8.52;2.63;;;16.50;99.90;;;;;;5050044;28;20088;-78
2022/10/21 10:02:42;;;;;;;7.07;2.90;;;16.50;99.90;;;;;;5054499;28;20037;-79
2022/10/21 10:05:48;;;;;;;9.23;2.25;;;16.60;99.90;;;;;;5055522;28;20099;-79
2022/10/21 10:08:26;;;;;;;9.13;2.75;;;16.60;99.90;;;;;;5055310;28;20033;-79
2022/10/21 10:11:09;;;;;;;8.48;2.30;;;16.70;99.90;;;;;;5057101;28;20028;-79
2022/10/21 10:14:22;;;;;;;6.18;2.53;;;16.70;99.90;;;;;;5055177;28;20059;-77
2022/10/21 10:16:48;;;;;;;9.93;3.20;;;16.80;99.90;;;;;;5028102;28;20064;-77
2022/10/21 10:19:22;;;;;;;11.57;2.50;;;16.80;99.90;;;;;;5046984;28;20430;-76
2022/10/21 10:22:14;;;;;;;8.63;2.85;;;16.80;99.90;;;;;;5045142;28;20025;-79
2022/10/21 10:24:41;;;;;;;5.80;1.98;;;16.90;99.90;;;;;;5046361;28;20029;-78
2022/10/21 10:27:18;;;;;;;2.78;1.30;;;16.90;99.90;;;;;;5069492;22;20028;-78
2022/10/21 10:29:52;;;;;;;3.20;1.20;;;17.00;99.90;;;;;;5073658;28;20089;-78
2022/10/21 10:32:18;;;;;;;4.88;1.92;;;17.00;99.90;;;;;;5075137;28;20035;-78
2022/10/21 10:34:56;;;;;;;3.00;1.48;;;17.10;99.90;;;;;;5077598;28;20070;-83
2022/10/21 10:37:27;;;;;;;2.33;1.25;;;17.10;99.90;;;;;;5071865;28;20081;-80
2022/10/21 10:40:07;;;;;;;2.25;1.38;;;17.20;99.90;;;;;;5057840;28;20115;-83
2022/10/21 10:42:40;;;;;;;3.17;1.33;;;17.20;99.90;;;;;;5074164;28;20032;-81
2022/10/21 10:45:15;;;;;;;2.85;0.98;;;17.30;99.90;;;;;;5077287;28;20029;-81
2022/10/21 10:47:46;;;;;;;2.95;1.08;;;17.30;99.90;;;;;;5061264;28;20028;-82
2022/10/21 10:50:43;;;;;;;1.58;0.75;;;17.30;99.90;;;;;;5064408;28;20028;-82
2022/10/21 10:53:34;;;;;;;2.75;0.93;;;17.30;99.90;;;;;;5055010;28;20452;-83
2022/10/21 10:56:27;;;;;;;1.52;0.70;;;17.30;99.90;;;;;;5061009;28;20024;-81
2022/10/21 10:59:22;;;;;;;4.00;1.10;;;17.30;99.90;;;;;;5066666;28;20104;-83
2022/10/21 11:01:56;;;;;;;2.05;0.77;;;17.30;99.90;;;;;;5052130;28;20127;-83
2022/10/21 11:04:33;;;;;;;3.28;0.77;;;17.20;99.90;;;;;;5063173;28;20059;-81
2022/10/21 11:07:14;;;;;;;4.20;1.35;;;17.20;99.90;;;;;;5076809;28;20470;-82
2022/10/21 11:09:40;;;;;;;4.82;1.40;;;17.20;99.90;;;;;;5078625;28;20029;-82
2022/10/21 11:12:22;;;;;;;3.63;1.45;;;17.20;99.90;;;;;;5077409;28;20028;-80
2022/10/21 11:14:57;;;;;;;2.60;1.20;;;17.30;99.90;;;;;;5055068;28;20028;-82
2022/10/21 11:17:53;;;;;;;2.83;0.98;;;17.30;99.90;;;;;;5071880;28;20092;-80
2022/10/21 11:20:26;;;;;;;1.80;0.77;;;17.40;99.90;;;;;;5075072;28;20158;-80
2022/10/21 11:23:05;;;;;;;1.95;0.57;;;17.40;99.90;;;;;;5079339;28;20027;-80
2022/10/21 11:25:39;;;;;;;2.65;1.02;;;17.40;99.90;;;;;;5079689;28;20035;-81
2022/10/21 11:28:24;;;;;;;2.97;1.00;;;17.50;99.90;;;;;;5079355;28;20096;-81
2022/10/21 11:31:22;;;;;;;4.05;0.70;;;17.50;99.90;;;;;;5078759;28;20097;-81
2022/10/21 11:34:32;;;;;;;3.20;1.30;;;17.50;99.90;;;;;;5080188;28;20431;-82
2022/10/21 11:37:20;;;;;;;2.70;1.08;;;17.50;99.90;;;;;;5022923;28;20025;-80
2022/10/21 11:40:06;;;;;;;5.78;1.55;;;17.40;99.90;;;;;;5079069;28;20036;-80
2022/10/21 11:42:45;;;;;;;3.28;1.40;;;17.50;99.90;;;;;;5065504;28;20027;-82
2022/10/21 11:45:11;;;;;;;4.75;1.10;;;17.50;99.90;;;;;;5080597;28;20020;-81
2022/10/21 11:47:50;;;;;;;2.80;0.73;;;17.50;99.90;;;;;;5060504;28;20040;-81
2022/10/21 11:50:29;;;;;;;2.17;0.90;;;17.40;99.90;;;;;;5077019;28;20024;-80
2022/10/21 11:52:57;;;;;;;2.10;0.90;;;17.50;99.90;;;;;;5077345;28;20028;-81
2022/10/21 11:55:23;;;;;;;5.10;1.23;;;17.50;99.90;;;;;;5079671;28;20064;-81
2022/10/21 11:57:57;;;;;;;4.88;1.40;;;17.50;99.90;;;;;;5076707;28;20027;-78
2022/10/21 12:00:25;;;;;;;3.75;0.95;;;17.50;99.90;;;;;;5058491;28;20048;-82
2022/10/21 12:03:12;;;;;;;3.78;1.27;;;17.50;99.90;;;;;;5055434;28;20088;-81
2022/10/21 12:05:59;;;;;;;3.83;0.98;;;17.50;99.90;;;;;;5070382;28;20032;-81
2022/10/21 12:08:46;;;;;;;2.78;1.02;;;17.50;99.90;;;;;;5072206;28;20032;-80
2022/10/21 12:11:18;;;;;;;5.20;1.48;;;17.50;99.90;;;;;;5073855;28;20085;-78
2022/10/21 12:13:49;;;;;;;3.03;0.90;;;17.60;99.90;;;;;;5078896;28;20032;-81
2022/10/21 12:16:24;;;;;;;2.92;1.00;;;17.50;99.90;;;;;;5057380;28;20033;-81
2022/10/21 12:18:53;;;;;;;3.95;0.90;;;17.60;99.90;;;;;;5077158;28;20119;-81
2022/10/21 12:21:34;;;;;;;2.72;1.00;;;17.60;99.90;;;;;;5073030;28;20028;-81
2022/10/21 12:24:09;;;;;;;4.20;0.65;;;17.70;99.90;;;;;;5080865;28;20052;-80
2022/10/21 12:26:48;;;;;;;2.42;0.80;;;17.70;99.90;;;;;;5057560;28;20040;-82
2022/10/21 12:29:28;;;;;;;1.38;0.80;;;17.70;99.90;;;;;;5070169;28;20035;-81
2022/10/21 12:32:01;;;;;;;2.53;0.90;;;17.70;99.90;;;;;;5076873;28;20032;-83
2022/10/21 12:34:27;;;;;;;2.70;0.70;;;17.80;99.90;;;;;;5081829;28;20039;-80
2022/10/21 12:36:53;;;;;;;1.08;0.52;;;17.80;99.90;;;;;;5062023;28;20035;-81
2022/10/21 12:39:34;;;;;;;1.10;0.77;;;17.80;99.90;;;;;;5065605;28;20047;-83
2022/10/21 12:42:12;;;;;;;1.95;0.63;;;17.80;99.90;;;;;;5064177;28;20528;-81
2022/10/21 12:44:44;;;;;;;3.42;1.10;;;17.70;99.90;;;;;;5078042;28;20028;-81
2022/10/21 12:47:33;;;;;;;3.28;1.00;;;17.80;99.90;;;;;;5085755;28;20039;-82
2022/10/21 12:50:29;;;;;;;3.47;1.10;;;17.80;99.90;;;;;;5078427;28;20031;-80
2022/10/21 12:53:22;;;;;;;4.15;0.95;;;17.80;99.90;;;;;;5057520;28;20045;-83
2022/10/21 12:55:55;;;;;;;8.77;2.30;;;17.80;99.90;;;;;;5081058;28;20503;-80
2022/10/21 12:58:43;;;;;;;10.20;2.80;;;17.80;99.90;;;;;;5064243;28;20080;-81
2022/10/21 13:01:39;;;;;;;9.27;2.30;;;17.90;99.90;;;;;;5073114;28;20032;-80
2022/10/21 13:04:30;;;;;;;17.77;4.45;;;17.90;99.90;;;;;;5059199;28;20032;-80